< < Back
Terminal Aerodrome Forecast


Current Version              Previous Versions:   1  2  3  4  5  6  7  8  9  

Terminal Aerodrome Forecast

956
FTUS42 KJAX 221400 AAC
TAFSSI
TAF AMD
KSSI 221445Z 2215/2312 03006KT 2SM BR VCSH OVC002
     FM221800 06006KT 6SM -RA BR OVC004
     FM230100 13004KT 5SM BR VCSH OVC003=

Latest METAR

423
SAUS70 KWBC 221500 RRK
MTRSSI
METAR KSSI 221453Z AUTO 02005KT 1SM BR OVC002 13/12 A3003 RMK AO2 SLP168
T01280122 51005


USA.gov is the U.S. government's official web portal to all federal, state and local government web resources and services.